createdAt,value
2022-08-07T00:00:27.922Z,1.00
2022-08-07T00:02:56.097Z,1.05
2022-08-07T00:05:24.611Z,0.98
2022-08-07T00:08:00.229Z,1.10
2022-08-07T00:10:31.367Z,1.00
2022-08-07T00:13:09.683Z,1.08
2022-08-07T00:15:51.867Z,1.20
2022-08-07T00:18:23.981Z,1.35
2022-08-07T00:20:53.411Z,1.52
2022-08-07T00:23:21.790Z,0.93
2022-08-07T00:25:58.219Z,0.95
2022-08-07T00:28:34.140Z,1.30
2022-08-07T00:31:06.230Z,0.90
2022-08-07T00:33:35.513Z,1.13
2022-08-07T00:36:04.334Z,1.40
2022-08-07T00:38:33.310Z,1.10
2022-08-07T00:41:01.762Z,1.30
2022-08-07T00:44:01.580Z,0.85
2022-08-07T00:46:18.918Z,1.10
2022-08-07T00:48:49.917Z,1.15
2022-08-07T00:51:19.928Z,1.10
2022-08-07T00:53:55.216Z,1.20
2022-08-07T00:56:30.301Z,1.30
2022-08-07T00:59:05.017Z,1.13
2022-08-07T01:01:44.568Z,1.30
2022-08-07T01:04:24.606Z,1.40
2022-08-07T01:06:53.818Z,1.30
2022-08-07T01:10:03.959Z,1.30
2022-08-07T01:12:29.932Z,0.93
2022-08-07T01:15:03.699Z,1.00
2022-08-07T01:17:33.456Z,1.30
2022-08-07T01:20:06.530Z,1.40
2022-08-07T01:22:37.981Z,1.13
2022-08-07T01:25:40.032Z,1.10
2022-08-07T01:28:03.974Z,1.15
2022-08-07T01:30:33.410Z,1.20
2022-08-07T01:33:02.307Z,1.10
2022-08-07T01:35:52.798Z,1.23
2022-08-07T01:38:25.609Z,1.30
2022-08-07T01:40:56.077Z,1.30
2022-08-07T01:43:27.195Z,1.27
2022-08-07T01:46:04.380Z,1.20
2022-08-07T01:48:33.563Z,1.20
2022-08-07T01:51:24.527Z,1.48
2022-08-07T01:54:00.775Z,1.60
2022-08-07T01:56:49.367Z,1.30
2022-08-07T01:59:22.911Z,1.30
2022-08-07T02:02:00.182Z,1.20
2022-08-07T02:04:39.797Z,1.20
2022-08-07T02:07:36.235Z,1.25
2022-08-07T02:10:19.935Z,1.25
2022-08-07T02:12:50.324Z,1.48
2022-08-07T02:15:23.269Z,1.52
2022-08-07T02:17:56.475Z,1.30
2022-08-07T02:20:25.680Z,1.63
2022-08-07T02:22:59.915Z,1.50
2022-08-07T02:26:10.187Z,1.60
2022-08-07T02:28:24.673Z,1.80
2022-08-07T02:30:55.733Z,1.45
2022-08-07T02:33:32.755Z,1.48
2022-08-07T02:36:30.487Z,1.40
2022-08-07T02:38:56.751Z,1.60
2022-08-07T02:41:33.581Z,1.35
2022-08-07T02:44:06.485Z,1.50
2022-08-07T02:46:36.952Z,1.50
2022-08-07T02:49:05.618Z,1.40
2022-08-07T02:51:42.563Z,1.55
2022-08-07T02:54:21.313Z,1.20
2022-08-07T02:56:55.864Z,1.45
2022-08-07T02:59:27.861Z,1.60
2022-08-07T03:02:01.187Z,1.60
2022-08-07T03:04:32.211Z,1.40
2022-08-07T03:07:07.116Z,1.58
2022-08-07T03:09:43.527Z,1.42
2022-08-07T03:12:22.242Z,1.10
2022-08-07T03:14:52.814Z,1.33
2022-08-07T03:17:21.964Z,1.25
2022-08-07T03:19:54.653Z,1.45
2022-08-07T03:22:29.666Z,1.52
2022-08-07T03:24:59.853Z,1.63
2022-08-07T03:27:59.564Z,1.58
2022-08-07T03:30:18.624Z,1.75
2022-08-07T03:32:58.335Z,1.75
2022-08-07T03:35:43.561Z,1.95
2022-08-07T03:38:14.622Z,1.55
2022-08-07T03:40:44.426Z,1.63
2022-08-07T03:43:15.285Z,1.73
2022-08-07T03:45:47.411Z,2.00
2022-08-07T03:48:16.597Z,1.67
2022-08-07T03:50:52.139Z,1.83
2022-08-07T03:53:50.027Z,1.77
2022-08-07T03:56:32.804Z,1.48
2022-08-07T03:59:10.047Z,1.90
2022-08-07T04:01:45.244Z,1.80
2022-08-07T04:04:17.350Z,1.73
2022-08-07T04:06:46.036Z,1.73
2022-08-07T04:09:19.482Z,1.80
2022-08-07T04:12:26.379Z,2.05
2022-08-07T04:14:43.664Z,2.17
2022-08-07T04:17:19.758Z,1.88
2022-08-07T04:20:05.282Z,1.88
2022-08-07T04:22:33.729Z,2.08
2022-08-07T04:25:02.507Z,1.92
2022-08-07T04:27:35.916Z,1.60
2022-08-07T04:30:35.725Z,1.65
2022-08-07T04:33:02.566Z,2.30
2022-08-07T04:35:35.956Z,1.63
2022-08-07T04:38:08.368Z,1.95
2022-08-07T04:40:52.243Z,1.70
2022-08-07T04:44:11.264Z,1.80
2022-08-07T04:46:25.770Z,1.83
2022-08-07T04:49:14.914Z,1.73
2022-08-07T04:51:54.733Z,1.80
2022-08-07T04:54:32.586Z,1.45
2022-08-07T04:58:10.642Z,2.15
2022-08-07T05:00:11.223Z,1.75
2022-08-07T05:02:52.584Z,1.60
2022-08-07T05:05:53.255Z,1.67
2022-08-07T05:08:59.286Z,1.95
2022-08-07T05:11:19.568Z,1.77
2022-08-07T05:14:56.079Z,2.03
2022-08-07T05:16:52.736Z,2.28
2022-08-07T05:19:25.699Z,2.00
2022-08-07T05:22:04.542Z,2.00
2022-08-07T05:24:39.497Z,1.80
2022-08-07T05:27:14.539Z,1.80
2022-08-07T05:30:00.841Z,1.70
2022-08-07T05:32:29.463Z,2.35
2022-08-07T05:34:59.818Z,1.83
2022-08-07T05:37:31.307Z,1.98
2022-08-07T05:40:17.308Z,2.17
2022-08-07T05:42:56.297Z,2.40
2022-08-07T05:45:46.782Z,2.03
2022-08-07T05:48:14.903Z,2.40
2022-08-07T05:50:44.575Z,2.60
2022-08-07T05:54:12.183Z,2.65
2022-08-07T05:56:05.637Z,2.90
2022-08-07T05:58:37.419Z,3.15
2022-08-07T06:01:10.426Z,3.47
2022-08-07T06:03:56.598Z,3.60
2022-08-07T06:06:32.345Z,2.88
2022-08-07T06:09:04.572Z,3.50
2022-08-07T06:11:34.507Z,3.90
2022-08-07T06:14:12.257Z,3.55
2022-08-07T06:16:56.183Z,3.70
2022-08-07T06:19:58.053Z,4.50
2022-08-07T06:22:23.982Z,3.70
2022-08-07T06:24:57.738Z,5.33
2022-08-07T06:28:00.655Z,4.97
2022-08-07T06:30:32.063Z,4.70
2022-08-07T06:33:04.782Z,4.90
2022-08-07T06:35:45.384Z,4.90
2022-08-07T06:38:19.864Z,5.00
2022-08-07T06:40:53.018Z,5.20
2022-08-07T06:43:23.784Z,5.20
2022-08-07T06:45:52.061Z,5.75
2022-08-07T06:48:25.058Z,5.68
2022-08-07T06:50:55.880Z,5.25
2022-08-07T06:55:27.265Z,5.55
2022-08-07T06:56:17.417Z,5.80
2022-08-07T07:00:12.662Z,5.10
2022-08-07T07:01:43.641Z,6.00
2022-08-07T07:04:32.063Z,5.38
2022-08-07T07:07:19.081Z,5.35
2022-08-07T07:09:53.122Z,4.97
2022-08-07T07:12:33.682Z,5.00
2022-08-07T07:15:09.084Z,5.00
2022-08-07T07:17:59.663Z,4.88
2022-08-07T07:20:34.529Z,4.47
2022-08-07T07:24:08.152Z,4.22
2022-08-07T07:26:33.481Z,4.63
2022-08-07T07:29:39.656Z,4.55
2022-08-07T07:31:47.111Z,4.25
2022-08-07T07:34:20.935Z,3.75
2022-08-07T07:36:54.178Z,3.33
2022-08-07T07:39:23.469Z,3.75
2022-08-07T07:42:13.218Z,3.70
2022-08-07T07:44:49.572Z,3.40
2022-08-07T07:47:23.642Z,3.08
2022-08-07T07:50:34.580Z,2.97
2022-08-07T07:52:46.931Z,2.10
2022-08-07T07:55:17.129Z,2.70
2022-08-07T07:57:51.927Z,2.22
2022-08-07T08:00:29.850Z,2.70
2022-08-07T08:03:08.311Z,2.25
2022-08-07T08:05:50.833Z,2.70
2022-08-07T08:08:34.741Z,2.20
2022-08-07T08:11:05.846Z,2.17
2022-08-07T08:13:54.995Z,2.53
2022-08-07T08:16:31.196Z,1.90
2022-08-07T08:19:09.546Z,2.45
2022-08-07T08:22:05.932Z,2.20
2022-08-07T08:25:04.480Z,2.00
2022-08-07T08:27:39.532Z,2.05
2022-08-07T08:30:19.383Z,2.20
2022-08-07T08:32:53.552Z,2.35
2022-08-07T08:35:24.964Z,2.72
2022-08-07T08:38:03.433Z,2.63
2022-08-07T08:40:36.123Z,2.15
2022-08-07T08:43:11.739Z,2.53
2022-08-07T08:45:59.003Z,2.70
2022-08-07T08:48:38.399Z,3.25
2022-08-07T08:51:14.816Z,2.17
2022-08-07T08:54:01.864Z,2.35
2022-08-07T08:56:34.146Z,2.15
2022-08-07T08:59:12.860Z,1.95
2022-08-07T09:01:49.259Z,2.47
2022-08-07T09:04:26.105Z,1.92
2022-08-07T09:07:02.034Z,1.80
2022-08-07T09:09:56.797Z,2.20
2022-08-07T09:12:41.500Z,1.88
2022-08-07T09:16:20.215Z,2.00
2022-08-07T09:18:32.896Z,1.80
2022-08-07T09:21:34.098Z,2.13
2022-08-07T09:24:54.123Z,5.80
2022-08-07T09:27:09.064Z,3.47
2022-08-07T09:30:03.873Z,1.90
2022-08-07T09:32:57.854Z,1.75
2022-08-07T09:36:05.014Z,2.00
2022-08-07T09:38:36.359Z,1.70
2022-08-07T09:41:14.174Z,1.80
2022-08-07T09:44:05.779Z,1.90
2022-08-07T09:47:50.658Z,2.20
2022-08-07T09:50:02.069Z,1.88
2022-08-07T09:52:51.555Z,1.85
2022-08-07T09:55:29.544Z,1.73
2022-08-07T09:58:51.084Z,1.83
2022-08-07T10:01:51.375Z,1.70
2022-08-07T10:04:57.231Z,1.90
2022-08-07T10:07:53.088Z,1.65
2022-08-07T10:11:16.371Z,2.45
2022-08-07T10:14:00.533Z,1.52
2022-08-07T10:16:49.467Z,1.70
2022-08-07T10:19:30.393Z,1.87
2022-08-07T10:22:24.900Z,2.15
2022-08-07T10:25:22.747Z,1.80
2022-08-07T10:28:18.504Z,1.88
2022-08-07T10:31:00.226Z,1.70
2022-08-07T10:34:06.748Z,1.92
2022-08-07T10:36:55.892Z,1.90
2022-08-07T10:39:41.730Z,1.92
2022-08-07T10:42:35.190Z,1.30
2022-08-07T10:45:16.591Z,1.40
2022-08-07T10:47:54.497Z,1.48
2022-08-07T10:50:32.889Z,1.40
2022-08-07T10:53:09.240Z,1.40
2022-08-07T10:55:54.613Z,1.60
2022-08-07T10:58:40.331Z,1.60
2022-08-07T11:01:35.678Z,1.50
2022-08-07T11:04:31.939Z,2.10
2022-08-07T11:07:15.135Z,1.70
2022-08-07T11:10:09.858Z,1.13
2022-08-07T11:12:49.280Z,1.80
2022-08-07T11:15:37.483Z,1.30
2022-08-07T11:18:14.463Z,1.27
2022-08-07T11:20:52.487Z,1.70
2022-08-07T11:23:36.170Z,1.33
2022-08-07T11:26:13.079Z,1.80
2022-08-07T11:28:53.355Z,1.50
2022-08-07T11:31:33.297Z,1.25
2022-08-07T11:34:17.059Z,1.30
2022-08-07T11:37:05.101Z,1.10
2022-08-07T11:40:04.407Z,1.20
2022-08-07T11:42:41.821Z,1.45
2022-08-07T11:45:20.426Z,1.42
2022-08-07T11:48:18.214Z,1.38
2022-08-07T11:51:40.714Z,1.33
2022-08-07T11:54:25.577Z,1.42
2022-08-07T11:57:12.607Z,1.33
2022-08-07T12:00:10.621Z,1.40
2022-08-07T12:03:45.199Z,1.70
2022-08-07T12:06:44.897Z,1.42
2022-08-07T12:09:29.616Z,1.33
2022-08-07T12:12:10.950Z,1.30
2022-08-07T12:14:56.162Z,1.10
2022-08-07T12:17:38.261Z,1.45
2022-08-07T12:20:21.139Z,1.30
2022-08-07T12:23:17.790Z,1.50
2022-08-07T12:26:21.961Z,1.50
2022-08-07T12:28:49.785Z,1.20
2022-08-07T12:31:37.647Z,1.20
2022-08-07T12:34:19.313Z,1.45
2022-08-07T12:36:49.458Z,1.27
2022-08-07T12:39:44.272Z,1.40
2022-08-07T12:42:13.311Z,1.63
2022-08-07T12:44:45.113Z,1.38
2022-08-07T12:47:37.728Z,1.20
2022-08-07T12:50:38.588Z,1.25
2022-08-07T12:53:18.546Z,1.45
2022-08-07T12:56:04.068Z,1.17
2022-08-07T12:58:39.932Z,1.40
2022-08-07T13:01:21.201Z,1.15
2022-08-07T13:04:31.742Z,1.48
2022-08-07T13:08:11.868Z,1.80
2022-08-07T13:10:37.797Z,1.65
2022-08-07T13:13:46.775Z,1.48
2022-08-07T13:16:28.065Z,1.40
2022-08-07T13:19:18.092Z,1.30
2022-08-07T13:22:01.991Z,1.80
2022-08-07T13:24:43.856Z,1.55
2022-08-07T13:28:05.930Z,1.75
2022-08-07T13:30:19.679Z,1.50
2022-08-07T13:33:16.418Z,1.38
2022-08-07T13:36:05.369Z,1.45
2022-08-07T13:38:41.941Z,1.52
2022-08-07T13:41:22.023Z,1.60
2022-08-07T13:43:56.169Z,1.60
2022-08-07T13:46:37.680Z,1.50
2022-08-07T13:50:31.538Z,1.48
2022-08-07T13:52:32.039Z,1.70
2022-08-07T13:54:57.079Z,1.83
2022-08-07T13:57:32.145Z,1.58
2022-08-07T14:00:26.246Z,2.00
2022-08-07T14:02:59.406Z,1.90
2022-08-07T14:05:37.196Z,1.70
2022-08-07T14:08:08.689Z,1.70
2022-08-07T14:10:42.181Z,1.85
2022-08-07T14:13:16.303Z,1.60
2022-08-07T14:15:51.275Z,1.88
2022-08-07T14:18:29.603Z,1.70
2022-08-07T14:21:07.902Z,1.85
2022-08-07T14:24:01.107Z,1.77
2022-08-07T14:26:33.430Z,2.00
2022-08-07T14:30:04.765Z,1.95
2022-08-07T14:31:59.358Z,1.67
2022-08-07T14:34:30.836Z,1.80
2022-08-07T14:37:02.985Z,2.10
2022-08-07T14:40:14.608Z,1.60
2022-08-07T14:42:27.475Z,1.80
2022-08-07T14:45:21.738Z,1.40
2022-08-07T14:47:58.674Z,1.50
2022-08-07T14:50:31.595Z,1.55
2022-08-07T14:53:08.788Z,1.50
2022-08-07T14:55:55.655Z,1.60
2022-08-07T14:58:28.675Z,1.73
2022-08-07T15:01:00.077Z,1.40
2022-08-07T15:06:47.910Z,1.10
2022-08-07T15:09:59.209Z,1.15
2022-08-07T15:12:10.320Z,1.47
2022-08-07T15:14:59.622Z,1.10
2022-08-07T15:17:54.829Z,1.52
2022-08-07T15:20:30.654Z,1.40
2022-08-07T15:23:20.470Z,1.50
2022-08-07T15:25:55.761Z,1.50
2022-08-07T15:31:57.853Z,1.23
2022-08-07T15:34:15.007Z,1.20
2022-08-07T15:37:04.013Z,1.50
2022-08-07T15:42:46.181Z,1.40
2022-08-07T15:45:24.035Z,2.40
2022-08-07T15:51:08.560Z,1.58
2022-08-07T15:53:51.730Z,1.40
2022-08-07T15:56:33.143Z,1.60
2022-08-07T15:59:03.847Z,1.42
2022-08-07T16:01:38.502Z,1.85
2022-08-07T16:04:15.144Z,2.60
2022-08-07T16:06:50.294Z,1.73
2022-08-07T16:09:23.390Z,1.80
2022-08-07T16:12:28.703Z,1.77
2022-08-07T16:15:05.970Z,1.90
2022-08-07T16:18:01.521Z,1.50
2022-08-07T16:20:44.202Z,1.55
2022-08-07T16:23:54.782Z,1.50
2022-08-07T16:26:59.294Z,1.52
2022-08-07T16:30:09.831Z,1.75
2022-08-07T16:32:38.749Z,1.73
2022-08-07T16:35:52.437Z,2.03
2022-08-07T16:38:59.877Z,1.60
2022-08-07T16:41:54.223Z,1.80
2022-08-07T16:47:58.954Z,1.70
2022-08-07T16:50:52.788Z,1.75
2022-08-07T16:54:06.225Z,1.52
2022-08-07T16:56:46.643Z,1.50
2022-08-07T16:59:25.019Z,1.38
2022-08-07T17:03:04.942Z,1.58
2022-08-07T17:06:19.485Z,1.60
2022-08-07T17:09:08.790Z,1.67
2022-08-07T17:12:03.952Z,1.65
2022-08-07T17:14:33.353Z,1.90
2022-08-07T17:17:07.217Z,1.65
2022-08-07T17:20:02.211Z,1.88
2022-08-07T17:22:38.237Z,1.60
2022-08-07T17:25:15.459Z,1.67
2022-08-07T17:27:59.258Z,1.90
2022-08-07T17:30:37.099Z,1.65
2022-08-07T17:34:08.584Z,1.95
2022-08-07T17:36:27.993Z,1.73
2022-08-07T17:39:10.131Z,2.03
2022-08-07T17:42:03.992Z,1.67
2022-08-07T17:44:54.508Z,1.65
2022-08-07T17:47:38.011Z,2.10
2022-08-07T17:50:19.117Z,2.10
2022-08-07T17:52:55.290Z,1.90
2022-08-07T17:55:56.578Z,2.47
2022-08-07T17:58:31.178Z,1.67
2022-08-07T18:01:21.098Z,1.73
2022-08-07T18:04:16.504Z,1.98
2022-08-07T18:07:19.328Z,1.63
2022-08-07T18:10:07.254Z,1.73
2022-08-07T18:12:58.180Z,1.60
2022-08-07T18:15:33.020Z,1.65
2022-08-07T18:18:46.372Z,1.90
2022-08-07T18:21:29.564Z,1.80
2022-08-07T18:24:07.035Z,1.75
2022-08-07T18:27:02.792Z,1.73
2022-08-07T18:30:07.343Z,1.90
2022-08-07T18:33:10.538Z,1.60
2022-08-07T18:35:53.566Z,2.03
2022-08-07T18:38:56.752Z,1.80
2022-08-07T18:41:45.182Z,1.67
2022-08-07T18:44:30.288Z,1.75
2022-08-07T18:47:06.235Z,1.73
2022-08-07T18:50:19.275Z,2.13
2022-08-07T18:52:54.469Z,2.00
2022-08-07T18:55:40.938Z,1.88
2022-08-07T18:58:32.921Z,1.63
2022-08-07T19:02:19.300Z,1.83
2022-08-07T19:04:17.223Z,1.90
2022-08-07T19:07:04.214Z,1.65
2022-08-07T19:09:55.876Z,1.50
2022-08-07T19:12:35.128Z,2.60
2022-08-07T19:16:02.804Z,1.73
2022-08-07T19:18:34.595Z,2.00
2022-08-07T19:21:44.299Z,2.10
2022-08-07T19:24:30.487Z,1.92
2022-08-07T19:28:58.566Z,2.28
2022-08-07T19:31:04.683Z,2.10
2022-08-07T19:32:47.431Z,1.98
2022-08-07T19:35:26.681Z,3.53
2022-08-07T19:37:59.559Z,2.28
2022-08-07T19:40:34.641Z,2.60
2022-08-07T19:43:21.643Z,1.83
2022-08-07T19:45:53.120Z,1.98
2022-08-07T19:48:42.914Z,1.92
2022-08-07T19:51:20.396Z,2.30
2022-08-07T19:54:32.671Z,2.30
2022-08-07T19:57:51.782Z,2.47
2022-08-07T19:59:41.655Z,2.40
2022-08-07T20:02:19.173Z,2.38
2022-08-07T20:04:52.089Z,2.40
2022-08-07T20:07:46.466Z,2.38
2022-08-07T20:10:38.345Z,2.58
2022-08-07T20:13:23.464Z,2.03
2022-08-07T20:15:57.891Z,2.40
2022-08-07T20:18:32.841Z,2.35
2022-08-07T20:21:21.132Z,2.63
2022-08-07T20:23:57.832Z,2.10
2022-08-07T20:26:32.501Z,2.13
2022-08-07T20:29:17.017Z,2.47
2022-08-07T20:32:01.910Z,2.08
2022-08-07T20:34:49.180Z,2.17
2022-08-07T20:37:24.379Z,2.47
2022-08-07T20:40:03.159Z,2.50
2022-08-07T20:42:34.373Z,2.47
2022-08-07T20:45:04.340Z,2.70
2022-08-07T20:47:57.767Z,2.13
2022-08-07T20:50:29.200Z,2.45
2022-08-07T20:52:59.362Z,2.50
2022-08-07T20:55:32.025Z,2.63
2022-08-07T20:58:11.792Z,3.03
2022-08-07T21:00:47.627Z,3.30
2022-08-07T21:03:19.302Z,3.22
2022-08-07T21:05:57.043Z,2.63
2022-08-07T21:08:38.201Z,2.50
2022-08-07T21:11:14.416Z,3.28
2022-08-07T21:14:16.710Z,3.10
2022-08-07T21:16:56.304Z,2.85
2022-08-07T21:19:32.229Z,2.92
2022-08-07T21:22:19.198Z,2.85
2022-08-07T21:25:12.131Z,2.80
2022-08-07T21:28:02.125Z,2.60
2022-08-07T21:30:38.713Z,2.95
2022-08-07T21:33:17.406Z,2.78
2022-08-07T21:36:06.162Z,2.90
2022-08-07T21:38:50.331Z,2.63
2022-08-07T21:41:27.886Z,3.50
2022-08-07T21:44:14.715Z,3.20
2022-08-07T21:47:01.408Z,2.80
2022-08-07T21:49:40.818Z,2.85
2022-08-07T21:52:35.108Z,2.85
2022-08-07T21:55:13.154Z,2.83
2022-08-07T21:58:05.731Z,3.47
2022-08-07T22:00:37.955Z,2.97
2022-08-07T22:03:16.707Z,3.03
2022-08-07T22:05:52.342Z,3.15
2022-08-07T22:08:23.364Z,3.17
2022-08-07T22:10:58.837Z,2.80
2022-08-07T22:13:50.504Z,3.28
2022-08-07T22:16:44.691Z,3.30
2022-08-07T22:19:18.169Z,2.83
2022-08-07T22:22:04.455Z,3.78
2022-08-07T22:24:58.629Z,3.72
2022-08-07T22:28:07.509Z,3.33
2022-08-07T22:30:35.712Z,3.38
2022-08-07T22:33:10.236Z,3.63
2022-08-07T22:35:42.812Z,3.50
2022-08-07T22:38:24.149Z,3.53
2022-08-07T22:40:59.898Z,3.28
2022-08-07T22:43:34.234Z,3.00
2022-08-07T22:47:02.948Z,3.20
2022-08-07T22:49:33.997Z,3.33
2022-08-07T22:52:19.580Z,3.20
2022-08-07T22:55:31.797Z,3.10
2022-08-07T22:58:21.448Z,3.38
2022-08-07T23:01:08.631Z,4.07
2022-08-07T23:03:58.786Z,3.65
2022-08-07T23:06:51.848Z,4.20
2022-08-07T23:10:05.950Z,3.80
2022-08-07T23:12:35.654Z,3.85
2022-08-07T23:15:21.855Z,3.90
2022-08-07T23:18:13.737Z,3.53
2022-08-07T23:21:04.775Z,3.67
2022-08-07T23:24:16.892Z,4.13
2022-08-07T23:26:59.163Z,3.03
2022-08-07T23:30:37.889Z,3.47
2022-08-07T23:34:34.243Z,3.33
2022-08-07T23:35:55.752Z,3.42
2022-08-07T23:38:37.000Z,3.08
2022-08-07T23:41:33.249Z,3.95
2022-08-07T23:44:35.631Z,3.85
2022-08-07T23:47:23.739Z,4.00
2022-08-07T23:50:16.143Z,3.80
2022-08-07T23:53:08.847Z,3.50
2022-08-07T23:55:55.553Z,3.70
2022-08-07T23:58:32.124Z,3.83
